sensor_id;sensor_type;location;lat;lon;timestamp;P1;durP1;ratioP1;P2;durP2;ratioP2
20241;SDS011;10279;46.388;8.116;2023-11-18T00:00:01;0.40;;;0.40;;
20241;SDS011;10279;46.388;8.116;2023-11-18T00:02:38;1.60;;;0.73;;
20241;SDS011;10279;46.388;8.116;2023-11-18T00:05:06;0.70;;;0.70;;
20241;SDS011;10279;46.388;8.116;2023-11-18T00:07:34;0.83;;;0.57;;
20241;SDS011;10279;46.388;8.116;2023-11-18T00:10:01;0.67;;;0.60;;
20241;SDS011;10279;46.388;8.116;2023-11-18T00:12:29;0.77;;;0.60;;
20241;SDS011;10279;46.388;8.116;2023-11-18T00:14:56;1.07;;;0.50;;
20241;SDS011;10279;46.388;8.116;2023-11-18T00:17:23;0.50;;;0.50;;
20241;SDS011;10279;46.388;8.116;2023-11-18T00:19:50;0.83;;;0.50;;
20241;SDS011;10279;46.388;8.116;2023-11-18T00:22:17;0.63;;;0.50;;
20241;SDS011;10279;46.388;8.116;2023-11-18T00:24:44;1.07;;;0.60;;
20241;SDS011;10279;46.388;8.116;2023-11-18T00:27:11;1.37;;;0.43;;
20241;SDS011;10279;46.388;8.116;2023-11-18T00:29:41;2.30;;;0.50;;
20241;SDS011;10279;46.388;8.116;2023-11-18T00:32:10;0.70;;;0.60;;
20241;SDS011;10279;46.388;8.116;2023-11-18T00:34:38;1.20;;;0.40;;
20241;SDS011;10279;46.388;8.116;2023-11-18T00:37:05;0.83;;;0.60;;
20241;SDS011;10279;46.388;8.116;2023-11-18T00:39:33;0.90;;;0.67;;
20241;SDS011;10279;46.388;8.116;2023-11-18T00:42:01;1.03;;;0.60;;
20241;SDS011;10279;46.388;8.116;2023-11-18T00:44:28;0.40;;;0.40;;
20241;SDS011;10279;46.388;8.116;2023-11-18T00:46:55;0.73;;;0.63;;
20241;SDS011;10279;46.388;8.116;2023-11-18T00:49:24;0.97;;;0.40;;
20241;SDS011;10279;46.388;8.116;2023-11-18T00:51:52;1.23;;;0.90;;
20241;SDS011;10279;46.388;8.116;2023-11-18T00:54:19;0.90;;;0.50;;
20241;SDS011;10279;46.388;8.116;2023-11-18T00:56:46;1.83;;;0.73;;
20241;SDS011;10279;46.388;8.116;2023-11-18T00:59:13;0.97;;;0.47;;
20241;SDS011;10279;46.388;8.116;2023-11-18T01:01:40;0.80;;;0.80;;
20241;SDS011;10279;46.388;8.116;2023-11-18T01:04:08;0.87;;;0.70;;
20241;SDS011;10279;46.388;8.116;2023-11-18T01:06:35;0.70;;;0.60;;
20241;SDS011;10279;46.388;8.116;2023-11-18T01:09:02;0.43;;;0.43;;
20241;SDS011;10279;46.388;8.116;2023-11-18T01:11:30;1.47;;;0.77;;
20241;SDS011;10279;46.388;8.116;2023-11-18T01:13:57;1.73;;;0.67;;
20241;SDS011;10279;46.388;8.116;2023-11-18T01:16:24;3.63;;;0.60;;
20241;SDS011;10279;46.388;8.116;2023-11-18T01:18:51;0.50;;;0.50;;
20241;SDS011;10279;46.388;8.116;2023-11-18T01:21:18;0.67;;;0.53;;
20241;SDS011;10279;46.388;8.116;2023-11-18T01:23:45;0.47;;;0.47;;
20241;SDS011;10279;46.388;8.116;2023-11-18T01:26:13;0.60;;;0.60;;
20241;SDS011;10279;46.388;8.116;2023-11-18T01:28:40;3.47;;;0.50;;
20241;SDS011;10279;46.388;8.116;2023-11-18T01:31:11;1.23;;;1.13;;
20241;SDS011;10279;46.388;8.116;2023-11-18T01:33:40;0.87;;;0.70;;
20241;SDS011;10279;46.388;8.116;2023-11-18T01:36:08;0.93;;;0.57;;
20241;SDS011;10279;46.388;8.116;2023-11-18T01:38:36;1.33;;;0.70;;
20241;SDS011;10279;46.388;8.116;2023-11-18T01:41:06;1.00;;;0.70;;
20241;SDS011;10279;46.388;8.116;2023-11-18T01:43:35;0.50;;;0.50;;
20241;SDS011;10279;46.388;8.116;2023-11-18T01:46:03;0.90;;;0.70;;
20241;SDS011;10279;46.388;8.116;2023-11-18T01:48:37;1.30;;;0.97;;
20241;SDS011;10279;46.388;8.116;2023-11-18T01:51:04;0.73;;;0.60;;
20241;SDS011;10279;46.388;8.116;2023-11-18T01:53:34;1.07;;;0.50;;
20241;SDS011;10279;46.388;8.116;2023-11-18T01:56:03;0.53;;;0.50;;
20241;SDS011;10279;46.388;8.116;2023-11-18T01:58:32;1.70;;;0.80;;
20241;SDS011;10279;46.388;8.116;2023-11-18T02:01:02;0.83;;;0.73;;
20241;SDS011;10279;46.388;8.116;2023-11-18T02:03:34;1.57;;;0.70;;
20241;SDS011;10279;46.388;8.116;2023-11-18T02:06:02;0.83;;;0.50;;
20241;SDS011;10279;46.388;8.116;2023-11-18T02:08:32;4.17;;;0.70;;
20241;SDS011;10279;46.388;8.116;2023-11-18T02:11:05;0.70;;;0.70;;
20241;SDS011;10279;46.388;8.116;2023-11-18T02:13:44;0.57;;;0.57;;
20241;SDS011;10279;46.388;8.116;2023-11-18T02:16:16;1.00;;;0.60;;
20241;SDS011;10279;46.388;8.116;2023-11-18T02:18:44;1.30;;;0.87;;
20241;SDS011;10279;46.388;8.116;2023-11-18T02:21:13;0.90;;;0.80;;
20241;SDS011;10279;46.388;8.116;2023-11-18T02:23:41;1.23;;;1.03;;
20241;SDS011;10279;46.388;8.116;2023-11-18T02:26:09;0.60;;;0.60;;
20241;SDS011;10279;46.388;8.116;2023-11-18T02:28:36;1.07;;;0.80;;
20241;SDS011;10279;46.388;8.116;2023-11-18T02:31:13;1.43;;;0.73;;
20241;SDS011;10279;46.388;8.116;2023-11-18T02:33:50;1.60;;;1.00;;
20241;SDS011;10279;46.388;8.116;2023-11-18T02:36:30;0.73;;;0.73;;
20241;SDS011;10279;46.388;8.116;2023-11-18T02:39:12;0.87;;;0.70;;
20241;SDS011;10279;46.388;8.116;2023-11-18T02:42:05;1.60;;;0.70;;
20241;SDS011;10279;46.388;8.116;2023-11-18T02:44:37;0.83;;;0.77;;
20241;SDS011;10279;46.388;8.116;2023-11-18T02:47:05;1.00;;;0.90;;
20241;SDS011;10279;46.388;8.116;2023-11-18T02:49:34;1.10;;;0.70;;
20241;SDS011;10279;46.388;8.116;2023-11-18T02:52:02;0.60;;;0.60;;
20241;SDS011;10279;46.388;8.116;2023-11-18T02:54:29;0.70;;;0.70;;
20241;SDS011;10279;46.388;8.116;2023-11-18T02:56:56;1.27;;;0.83;;
20241;SDS011;10279;46.388;8.116;2023-11-18T02:59:25;0.63;;;0.63;;
20241;SDS011;10279;46.388;8.116;2023-11-18T03:01:54;1.67;;;0.70;;
20241;SDS011;10279;46.388;8.116;2023-11-18T03:04:22;0.60;;;0.60;;
20241;SDS011;10279;46.388;8.116;2023-11-18T03:06:50;0.47;;;0.43;;
20241;SDS011;10279;46.388;8.116;2023-11-18T03:09:17;0.60;;;0.60;;
20241;SDS011;10279;46.388;8.116;2023-11-18T03:11:45;0.70;;;0.47;;
20241;SDS011;10279;46.388;8.116;2023-11-18T03:14:12;0.50;;;0.50;;
20241;SDS011;10279;46.388;8.116;2023-11-18T03:16:39;0.70;;;0.70;;
20241;SDS011;10279;46.388;8.116;2023-11-18T03:19:07;1.93;;;0.60;;
20241;SDS011;10279;46.388;8.116;2023-11-18T03:21:35;0.93;;;0.70;;
20241;SDS011;10279;46.388;8.116;2023-11-18T03:24:03;0.57;;;0.57;;
20241;SDS011;10279;46.388;8.116;2023-11-18T03:26:31;1.37;;;0.70;;
20241;SDS011;10279;46.388;8.116;2023-11-18T03:28:58;1.07;;;0.63;;
20241;SDS011;10279;46.388;8.116;2023-11-18T03:31:25;0.93;;;0.63;;
20241;SDS011;10279;46.388;8.116;2023-11-18T03:33:53;1.10;;;0.80;;
20241;SDS011;10279;46.388;8.116;2023-11-18T03:36:20;0.60;;;0.60;;
20241;SDS011;10279;46.388;8.116;2023-11-18T03:38:47;0.83;;;0.70;;
20241;SDS011;10279;46.388;8.116;2023-11-18T03:41:15;0.77;;;0.60;;
20241;SDS011;10279;46.388;8.116;2023-11-18T03:43:42;1.70;;;0.60;;
20241;SDS011;10279;46.388;8.116;2023-11-18T03:46:09;1.47;;;0.80;;
20241;SDS011;10279;46.388;8.116;2023-11-18T03:48:37;0.70;;;0.70;;
20241;SDS011;10279;46.388;8.116;2023-11-18T03:51:04;0.97;;;0.70;;
20241;SDS011;10279;46.388;8.116;2023-11-18T03:53:31;0.50;;;0.50;;
20241;SDS011;10279;46.388;8.116;2023-11-18T03:56:00;0.60;;;0.57;;
20241;SDS011;10279;46.388;8.116;2023-11-18T03:58:28;0.67;;;0.60;;
20241;SDS011;10279;46.388;8.116;2023-11-18T04:00:56;0.87;;;0.80;;
20241;SDS011;10279;46.388;8.116;2023-11-18T04:03:24;0.47;;;0.47;;
20241;SDS011;10279;46.388;8.116;2023-11-18T04:05:51;1.10;;;0.67;;
20241;SDS011;10279;46.388;8.116;2023-11-18T04:08:18;0.90;;;0.70;;
20241;SDS011;10279;46.388;8.116;2023-11-18T04:10:45;0.60;;;0.60;;
20241;SDS011;10279;46.388;8.116;2023-11-18T04:13:12;0.60;;;0.60;;
20241;SDS011;10279;46.388;8.116;2023-11-18T04:15:39;0.73;;;0.73;;
20241;SDS011;10279;46.388;8.116;2023-11-18T04:18:06;3.03;;;1.10;;
20241;SDS011;10279;46.388;8.116;2023-11-18T04:20:33;2.53;;;0.60;;
20241;SDS011;10279;46.388;8.116;2023-11-18T04:23:00;1.10;;;0.70;;
20241;SDS011;10279;46.388;8.116;2023-11-18T04:25:27;1.00;;;0.60;;
20241;SDS011;10279;46.388;8.116;2023-11-18T04:27:54;0.70;;;0.70;;
20241;SDS011;10279;46.388;8.116;2023-11-18T04:30:22;0.93;;;0.73;;
20241;SDS011;10279;46.388;8.116;2023-11-18T04:32:49;0.60;;;0.60;;
20241;SDS011;10279;46.388;8.116;2023-11-18T04:35:19;0.93;;;0.53;;
20241;SDS011;10279;46.388;8.116;2023-11-18T04:37:48;1.53;;;0.50;;
20241;SDS011;10279;46.388;8.116;2023-11-18T04:40:16;0.50;;;0.50;;
20241;SDS011;10279;46.388;8.116;2023-11-18T04:42:43;0.40;;;0.40;;
20241;SDS011;10279;46.388;8.116;2023-11-18T04:45:10;0.57;;;0.50;;
20241;SDS011;10279;46.388;8.116;2023-11-18T04:47:37;0.50;;;0.50;;
20241;SDS011;10279;46.388;8.116;2023-11-18T04:50:06;0.33;;;0.33;;
20241;SDS011;10279;46.388;8.116;2023-11-18T04:52:36;0.57;;;0.53;;
20241;SDS011;10279;46.388;8.116;2023-11-18T04:55:03;0.63;;;0.50;;
20241;SDS011;10279;46.388;8.116;2023-11-18T04:57:32;0.50;;;0.50;;
20241;SDS011;10279;46.388;8.116;2023-11-18T05:00:00;0.50;;;0.50;;
20241;SDS011;10279;46.388;8.116;2023-11-18T05:02:37;0.60;;;0.60;;
20241;SDS011;10279;46.388;8.116;2023-11-18T05:05:06;0.50;;;0.50;;
20241;SDS011;10279;46.388;8.116;2023-11-18T05:07:33;1.03;;;0.80;;
20241;SDS011;10279;46.388;8.116;2023-11-18T05:10:01;0.90;;;0.70;;
20241;SDS011;10279;46.388;8.116;2023-11-18T05:12:29;0.73;;;0.70;;
20241;SDS011;10279;46.388;8.116;2023-11-18T05:14:56;1.07;;;0.60;;
20241;SDS011;10279;46.388;8.116;2023-11-18T05:17:23;0.80;;;0.50;;
20241;SDS011;10279;46.388;8.116;2023-11-18T05:19:53;0.50;;;0.50;;
20241;SDS011;10279;46.388;8.116;2023-11-18T05:22:20;0.80;;;0.60;;
20241;SDS011;10279;46.388;8.116;2023-11-18T05:24:47;0.97;;;0.60;;
20241;SDS011;10279;46.388;8.116;2023-11-18T05:27:15;0.83;;;0.70;;
20241;SDS011;10279;46.388;8.116;2023-11-18T05:29:43;0.93;;;0.50;;
20241;SDS011;10279;46.388;8.116;2023-11-18T05:32:20;0.73;;;0.70;;
20241;SDS011;10279;46.388;8.116;2023-11-18T05:34:50;1.13;;;0.80;;
20241;SDS011;10279;46.388;8.116;2023-11-18T05:37:20;0.87;;;0.60;;
20241;SDS011;10279;46.388;8.116;2023-11-18T05:39:48;0.30;;;0.30;;
20241;SDS011;10279;46.388;8.116;2023-11-18T05:42:19;0.77;;;0.67;;
20241;SDS011;10279;46.388;8.116;2023-11-18T05:44:47;1.10;;;0.50;;
20241;SDS011;10279;46.388;8.116;2023-11-18T05:47:15;0.60;;;0.60;;
20241;SDS011;10279;46.388;8.116;2023-11-18T05:49:43;0.70;;;0.50;;
20241;SDS011;10279;46.388;8.116;2023-11-18T05:52:10;1.30;;;0.67;;
20241;SDS011;10279;46.388;8.116;2023-11-18T05:54:38;1.00;;;1.00;;
20241;SDS011;10279;46.388;8.116;2023-11-18T05:57:05;1.00;;;1.00;;
20241;SDS011;10279;46.388;8.116;2023-11-18T05:59:33;0.67;;;0.60;;
20241;SDS011;10279;46.388;8.116;2023-11-18T06:02:00;1.03;;;0.60;;
20241;SDS011;10279;46.388;8.116;2023-11-18T06:04:30;0.80;;;0.50;;
20241;SDS011;10279;46.388;8.116;2023-11-18T06:06:57;0.53;;;0.53;;
20241;SDS011;10279;46.388;8.116;2023-11-18T06:09:24;0.70;;;0.70;;
20241;SDS011;10279;46.388;8.116;2023-11-18T06:11:52;1.73;;;0.60;;
20241;SDS011;10279;46.388;8.116;2023-11-18T06:14:20;0.77;;;0.63;;
20241;SDS011;10279;46.388;8.116;2023-11-18T06:16:47;0.50;;;0.50;;
20241;SDS011;10279;46.388;8.116;2023-11-18T06:19:17;7.27;;;1.30;;
20241;SDS011;10279;46.388;8.116;2023-11-18T06:21:44;1.57;;;0.70;;
20241;SDS011;10279;46.388;8.116;2023-11-18T06:24:12;0.67;;;0.67;;
20241;SDS011;10279;46.388;8.116;2023-11-18T06:26:40;1.10;;;0.77;;
20241;SDS011;10279;46.388;8.116;2023-11-18T06:29:07;1.13;;;0.90;;
20241;SDS011;10279;46.388;8.116;2023-11-18T06:31:35;1.53;;;1.40;;
20241;SDS011;10279;46.388;8.116;2023-11-18T06:34:02;1.40;;;1.20;;
20241;SDS011;10279;46.388;8.116;2023-11-18T06:36:29;1.37;;;0.90;;
20241;SDS011;10279;46.388;8.116;2023-11-18T06:38:57;1.27;;;1.00;;
20241;SDS011;10279;46.388;8.116;2023-11-18T06:41:25;1.63;;;1.30;;
20241;SDS011;10279;46.388;8.116;2023-11-18T06:44:00;0.97;;;0.70;;
20241;SDS011;10279;46.388;8.116;2023-11-18T06:46:36;1.80;;;0.80;;
20241;SDS011;10279;46.388;8.116;2023-11-18T06:49:08;0.60;;;0.57;;
20241;SDS011;10279;46.388;8.116;2023-11-18T06:51:42;0.90;;;0.80;;
20241;SDS011;10279;46.388;8.116;2023-11-18T06:54:09;2.27;;;1.00;;
20241;SDS011;10279;46.388;8.116;2023-11-18T06:56:38;1.30;;;1.00;;
20241;SDS011;10279;46.388;8.116;2023-11-18T06:59:10;1.10;;;1.00;;
20241;SDS011;10279;46.388;8.116;2023-11-18T07:01:40;0.60;;;0.60;;
20241;SDS011;10279;46.388;8.116;2023-11-18T07:04:12;1.80;;;1.00;;
20241;SDS011;10279;46.388;8.116;2023-11-18T07:06:42;1.30;;;0.83;;
20241;SDS011;10279;46.388;8.116;2023-11-18T07:09:10;0.67;;;0.60;;
20241;SDS011;10279;46.388;8.116;2023-11-18T07:11:47;1.73;;;1.27;;
20241;SDS011;10279;46.388;8.116;2023-11-18T07:14:15;1.17;;;1.07;;
20241;SDS011;10279;46.388;8.116;2023-11-18T07:16:44;1.30;;;1.20;;
20241;SDS011;10279;46.388;8.116;2023-11-18T07:19:12;0.83;;;0.83;;
20241;SDS011;10279;46.388;8.116;2023-11-18T07:21:47;0.80;;;0.80;;
20241;SDS011;10279;46.388;8.116;2023-11-18T07:24:16;1.00;;;0.90;;
20241;SDS011;10279;46.388;8.116;2023-11-18T07:26:44;0.97;;;0.80;;
20241;SDS011;10279;46.388;8.116;2023-11-18T07:29:12;0.93;;;0.80;;
20241;SDS011;10279;46.388;8.116;2023-11-18T07:31:39;1.10;;;0.80;;
20241;SDS011;10279;46.388;8.116;2023-11-18T07:34:06;1.53;;;1.10;;
20241;SDS011;10279;46.388;8.116;2023-11-18T07:36:33;1.43;;;0.90;;
20241;SDS011;10279;46.388;8.116;2023-11-18T07:39:00;3.57;;;1.00;;
20241;SDS011;10279;46.388;8.116;2023-11-18T07:41:32;1.50;;;1.20;;
20241;SDS011;10279;46.388;8.116;2023-11-18T07:44:00;0.80;;;0.80;;
20241;SDS011;10279;46.388;8.116;2023-11-18T07:46:28;2.20;;;1.40;;
20241;SDS011;10279;46.388;8.116;2023-11-18T07:48:58;1.20;;;1.10;;
20241;SDS011;10279;46.388;8.116;2023-11-18T07:51:28;2.77;;;1.40;;
20241;SDS011;10279;46.388;8.116;2023-11-18T07:53:55;1.90;;;1.40;;
20241;SDS011;10279;46.388;8.116;2023-11-18T07:56:23;1.67;;;1.40;;
20241;SDS011;10279;46.388;8.116;2023-11-18T07:58:50;3.67;;;1.80;;
20241;SDS011;10279;46.388;8.116;2023-11-18T08:01:19;3.63;;;2.10;;
20241;SDS011;10279;46.388;8.116;2023-11-18T08:03:48;2.50;;;2.10;;
20241;SDS011;10279;46.388;8.116;2023-11-18T08:06:17;1.63;;;1.13;;
20241;SDS011;10279;46.388;8.116;2023-11-18T08:08:45;1.13;;;1.03;;
20241;SDS011;10279;46.388;8.116;2023-11-18T08:11:14;1.20;;;1.00;;
20241;SDS011;10279;46.388;8.116;2023-11-18T08:13:41;1.33;;;1.07;;
20241;SDS011;10279;46.388;8.116;2023-11-18T08:16:10;1.40;;;1.10;;
20241;SDS011;10279;46.388;8.116;2023-11-18T08:18:39;1.03;;;0.90;;
20241;SDS011;10279;46.388;8.116;2023-11-18T08:21:07;0.90;;;0.80;;
20241;SDS011;10279;46.388;8.116;2023-11-18T08:23:34;0.70;;;0.70;;
20241;SDS011;10279;46.388;8.116;2023-11-18T08:26:02;1.23;;;1.13;;
20241;SDS011;10279;46.388;8.116;2023-11-18T08:28:32;1.87;;;0.90;;
20241;SDS011;10279;46.388;8.116;2023-11-18T08:30:59;0.80;;;0.80;;
20241;SDS011;10279;46.388;8.116;2023-11-18T08:33:27;1.67;;;1.40;;
20241;SDS011;10279;46.388;8.116;2023-11-18T08:35:55;1.90;;;1.40;;
20241;SDS011;10279;46.388;8.116;2023-11-18T08:38:23;2.03;;;1.23;;
20241;SDS011;10279;46.388;8.116;2023-11-18T08:40:51;2.80;;;1.10;;
20241;SDS011;10279;46.388;8.116;2023-11-18T08:43:18;1.43;;;1.00;;
20241;SDS011;10279;46.388;8.116;2023-11-18T08:45:48;1.50;;;0.93;;
20241;SDS011;10279;46.388;8.116;2023-11-18T08:48:17;4.03;;;1.97;;
20241;SDS011;10279;46.388;8.116;2023-11-18T08:50:45;4.47;;;2.60;;
20241;SDS011;10279;46.388;8.116;2023-11-18T08:53:13;4.27;;;2.70;;
20241;SDS011;10279;46.388;8.116;2023-11-18T08:55:45;1.47;;;1.20;;
20241;SDS011;10279;46.388;8.116;2023-11-18T08:58:21;1.60;;;1.20;;
20241;SDS011;10279;46.388;8.116;2023-11-18T09:00:50;1.33;;;1.20;;
20241;SDS011;10279;46.388;8.116;2023-11-18T09:03:22;2.03;;;1.40;;
20241;SDS011;10279;46.388;8.116;2023-11-18T09:06:04;2.77;;;1.33;;
20241;SDS011;10279;46.388;8.116;2023-11-18T09:08:34;0.87;;;0.87;;
20241;SDS011;10279;46.388;8.116;2023-11-18T09:11:03;1.13;;;0.90;;
20241;SDS011;10279;46.388;8.116;2023-11-18T09:13:32;1.70;;;1.10;;
20241;SDS011;10279;46.388;8.116;2023-11-18T09:16:04;1.97;;;1.10;;
20241;SDS011;10279;46.388;8.116;2023-11-18T09:18:37;1.10;;;1.00;;
20241;SDS011;10279;46.388;8.116;2023-11-18T09:21:09;1.77;;;1.03;;
20241;SDS011;10279;46.388;8.116;2023-11-18T09:23:42;1.67;;;1.20;;
20241;SDS011;10279;46.388;8.116;2023-11-18T09:26:11;1.57;;;0.97;;
20241;SDS011;10279;46.388;8.116;2023-11-18T09:28:39;1.10;;;0.93;;
20241;SDS011;10279;46.388;8.116;2023-11-18T09:31:07;0.73;;;0.60;;
20241;SDS011;10279;46.388;8.116;2023-11-18T09:33:39;0.53;;;0.53;;
20241;SDS011;10279;46.388;8.116;2023-11-18T09:36:12;1.20;;;0.80;;
20241;SDS011;10279;46.388;8.116;2023-11-18T09:38:39;2.00;;;0.70;;
20241;SDS011;10279;46.388;8.116;2023-11-18T09:41:09;1.00;;;0.80;;
20241;SDS011;10279;46.388;8.116;2023-11-18T09:43:41;0.90;;;0.67;;
20241;SDS011;10279;46.388;8.116;2023-11-18T09:46:16;0.60;;;0.57;;
20241;SDS011;10279;46.388;8.116;2023-11-18T09:48:49;0.50;;;0.50;;
20241;SDS011;10279;46.388;8.116;2023-11-18T09:51:27;0.60;;;0.60;;
20241;SDS011;10279;46.388;8.116;2023-11-18T09:53:58;3.03;;;0.70;;
20241;SDS011;10279;46.388;8.116;2023-11-18T09:56:31;1.13;;;0.60;;
20241;SDS011;10279;46.388;8.116;2023-11-18T09:59:25;0.53;;;0.53;;
20241;SDS011;10279;46.388;8.116;2023-11-18T10:01:57;0.57;;;0.50;;
20241;SDS011;10279;46.388;8.116;2023-11-18T10:04:25;1.00;;;0.50;;
20241;SDS011;10279;46.388;8.116;2023-11-18T10:06:54;1.83;;;0.80;;
20241;SDS011;10279;46.388;8.116;2023-11-18T10:09:23;0.73;;;0.70;;
20241;SDS011;10279;46.388;8.116;2023-11-18T10:12:09;0.67;;;0.63;;
20241;SDS011;10279;46.388;8.116;2023-11-18T10:14:41;1.40;;;0.77;;
20241;SDS011;10279;46.388;8.116;2023-11-18T10:17:12;0.67;;;0.50;;
20241;SDS011;10279;46.388;8.116;2023-11-18T10:24:50;0.90;;;0.70;;
20241;SDS011;10279;46.388;8.116;2023-11-18T10:27:22;1.90;;;0.70;;
20241;SDS011;10279;46.388;8.116;2023-11-18T10:32:24;2.00;;;0.70;;
20241;SDS011;10279;46.388;8.116;2023-11-18T10:34:55;0.93;;;0.60;;
20241;SDS011;10279;46.388;8.116;2023-11-18T10:37:27;0.50;;;0.40;;
20241;SDS011;10279;46.388;8.116;2023-11-18T10:39:58;1.03;;;0.83;;
20241;SDS011;10279;46.388;8.116;2023-11-18T10:42:31;2.40;;;0.70;;
20241;SDS011;10279;46.388;8.116;2023-11-18T10:44:59;0.77;;;0.73;;
20241;SDS011;10279;46.388;8.116;2023-11-18T10:47:33;0.50;;;0.50;;
20241;SDS011;10279;46.388;8.116;2023-11-18T10:50:05;1.07;;;0.70;;
20241;SDS011;10279;46.388;8.116;2023-11-18T10:52:37;2.20;;;0.70;;
20241;SDS011;10279;46.388;8.116;2023-11-18T10:55:08;0.80;;;0.60;;
20241;SDS011;10279;46.388;8.116;2023-11-18T10:57:40;1.63;;;0.83;;
20241;SDS011;10279;46.388;8.116;2023-11-18T11:00:09;1.27;;;0.90;;
20241;SDS011;10279;46.388;8.116;2023-11-18T11:02:42;1.53;;;0.50;;
20241;SDS011;10279;46.388;8.116;2023-11-18T11:05:12;0.80;;;0.50;;
20241;SDS011;10279;46.388;8.116;2023-11-18T11:08:00;1.90;;;0.87;;
20241;SDS011;10279;46.388;8.116;2023-11-18T11:10:32;0.50;;;0.50;;
20241;SDS011;10279;46.388;8.116;2023-11-18T11:13:00;1.07;;;0.77;;
20241;SDS011;10279;46.388;8.116;2023-11-18T11:15:30;2.50;;;1.70;;
20241;SDS011;10279;46.388;8.116;2023-11-18T11:18:19;1.50;;;1.10;;
20241;SDS011;10279;46.388;8.116;2023-11-18T11:26:33;1.73;;;0.70;;
20241;SDS011;10279;46.388;8.116;2023-11-18T11:34:53;0.70;;;0.50;;
20241;SDS011;10279;46.388;8.116;2023-11-18T11:37:23;0.30;;;0.30;;
20241;SDS011;10279;46.388;8.116;2023-11-18T11:39:53;0.40;;;0.40;;
20241;SDS011;10279;46.388;8.116;2023-11-18T11:42:24;0.47;;;0.47;;
20241;SDS011;10279;46.388;8.116;2023-11-18T11:44:52;1.03;;;0.70;;
20241;SDS011;10279;46.388;8.116;2023-11-18T11:47:22;0.67;;;0.50;;
20241;SDS011;10279;46.388;8.116;2023-11-18T11:53:07;2.77;;;0.50;;
20241;SDS011;10279;46.388;8.116;2023-11-18T11:55:45;2.23;;;0.70;;
20241;SDS011;10279;46.388;8.116;2023-11-18T11:58:30;1.60;;;0.77;;
20241;SDS011;10279;46.388;8.116;2023-11-18T12:04:19;1.73;;;0.70;;
20241;SDS011;10279;46.388;8.116;2023-11-18T12:06:54;0.90;;;0.80;;
20241;SDS011;10279;46.388;8.116;2023-11-18T12:09:35;1.53;;;0.60;;
20241;SDS011;10279;46.388;8.116;2023-11-18T12:12:10;2.30;;;0.70;;
20241;SDS011;10279;46.388;8.116;2023-11-18T12:14:49;0.40;;;0.40;;
20241;SDS011;10279;46.388;8.116;2023-11-18T12:23:11;0.50;;;0.50;;
20241;SDS011;10279;46.388;8.116;2023-11-18T12:25:41;0.60;;;0.60;;
20241;SDS011;10279;46.388;8.116;2023-11-18T12:28:10;1.10;;;0.53;;
20241;SDS011;10279;46.388;8.116;2023-11-18T12:30:48;0.63;;;0.60;;
20241;SDS011;10279;46.388;8.116;2023-11-18T12:33:19;0.60;;;0.60;;
20241;SDS011;10279;46.388;8.116;2023-11-18T12:41:21;0.60;;;0.50;;
20241;SDS011;10279;46.388;8.116;2023-11-18T12:44:22;0.80;;;0.70;;
20241;SDS011;10279;46.388;8.116;2023-11-18T12:47:03;1.00;;;0.70;;
20241;SDS011;10279;46.388;8.116;2023-11-18T12:49:48;1.37;;;0.60;;
20241;SDS011;10279;46.388;8.116;2023-11-18T12:52:21;1.40;;;0.70;;
20241;SDS011;10279;46.388;8.116;2023-11-18T12:54:50;0.20;;;0.20;;
20241;SDS011;10279;46.388;8.116;2023-11-18T12:57:26;1.17;;;0.30;;
20241;SDS011;10279;46.388;8.116;2023-11-18T12:59:58;0.83;;;0.33;;
20241;SDS011;10279;46.388;8.116;2023-11-18T13:02:27;0.20;;;0.20;;
20241;SDS011;10279;46.388;8.116;2023-11-18T13:04:55;0.30;;;0.30;;
20241;SDS011;10279;46.388;8.116;2023-11-18T13:07:24;0.40;;;0.40;;
20241;SDS011;10279;46.388;8.116;2023-11-18T13:09:51;0.23;;;0.23;;
20241;SDS011;10279;46.388;8.116;2023-11-18T13:12:21;0.27;;;0.23;;
20241;SDS011;10279;46.388;8.116;2023-11-18T13:14:50;0.47;;;0.40;;
20241;SDS011;10279;46.388;8.116;2023-11-18T13:17:18;1.23;;;0.40;;
20241;SDS011;10279;46.388;8.116;2023-11-18T13:19:45;0.53;;;0.47;;
20241;SDS011;10279;46.388;8.116;2023-11-18T13:22:14;0.30;;;0.20;;
20241;SDS011;10279;46.388;8.116;2023-11-18T13:24:45;0.23;;;0.20;;
20241;SDS011;10279;46.388;8.116;2023-11-18T13:27:13;0.10;;;0.10;;
20241;SDS011;10279;46.388;8.116;2023-11-18T13:29:49;0.73;;;0.30;;
20241;SDS011;10279;46.388;8.116;2023-11-18T13:32:17;0.57;;;0.30;;
20241;SDS011;10279;46.388;8.116;2023-11-18T13:34:50;1.10;;;0.20;;
20241;SDS011;10279;46.388;8.116;2023-11-18T13:37:18;1.13;;;0.20;;
20241;SDS011;10279;46.388;8.116;2023-11-18T13:39:55;1.63;;;0.30;;
20241;SDS011;10279;46.388;8.116;2023-11-18T13:42:24;0.30;;;0.30;;
20241;SDS011;10279;46.388;8.116;2023-11-18T13:45:13;0.33;;;0.20;;
20241;SDS011;10279;46.388;8.116;2023-11-18T13:48:01;0.93;;;0.30;;
20241;SDS011;10279;46.388;8.116;2023-11-18T13:50:29;0.57;;;0.30;;
20241;SDS011;10279;46.388;8.116;2023-11-18T13:52:56;0.30;;;0.20;;
20241;SDS011;10279;46.388;8.116;2023-11-18T13:55:24;0.30;;;0.20;;
20241;SDS011;10279;46.388;8.116;2023-11-18T13:57:55;0.93;;;0.20;;
20241;SDS011;10279;46.388;8.116;2023-11-18T14:00:25;1.13;;;1.03;;
20241;SDS011;10279;46.388;8.116;2023-11-18T14:02:58;0.73;;;0.40;;
20241;SDS011;10279;46.388;8.116;2023-11-18T14:05:33;1.10;;;0.70;;
20241;SDS011;10279;46.388;8.116;2023-11-18T14:08:00;0.60;;;0.37;;
20241;SDS011;10279;46.388;8.116;2023-11-18T14:10:36;0.30;;;0.30;;
20241;SDS011;10279;46.388;8.116;2023-11-18T14:13:07;0.50;;;0.50;;
20241;SDS011;10279;46.388;8.116;2023-11-18T14:15:39;0.40;;;0.40;;
20241;SDS011;10279;46.388;8.116;2023-11-18T14:18:09;0.80;;;0.33;;
20241;SDS011;10279;46.388;8.116;2023-11-18T14:20:37;1.10;;;0.60;;
20241;SDS011;10279;46.388;8.116;2023-11-18T14:23:04;1.70;;;0.50;;
20241;SDS011;10279;46.388;8.116;2023-11-18T14:25:32;0.70;;;0.50;;
20241;SDS011;10279;46.388;8.116;2023-11-18T14:28:00;0.97;;;0.60;;
20241;SDS011;10279;46.388;8.116;2023-11-18T14:30:29;0.43;;;0.30;;
20241;SDS011;10279;46.388;8.116;2023-11-18T14:32:57;0.80;;;0.70;;
20241;SDS011;10279;46.388;8.116;2023-11-18T14:35:24;1.00;;;0.80;;
20241;SDS011;10279;46.388;8.116;2023-11-18T14:37:55;0.83;;;0.50;;
20241;SDS011;10279;46.388;8.116;2023-11-18T14:40:22;2.47;;;0.90;;
20241;SDS011;10279;46.388;8.116;2023-11-18T14:42:55;1.30;;;1.20;;
20241;SDS011;10279;46.388;8.116;2023-11-18T14:45:23;1.47;;;1.10;;
20241;SDS011;10279;46.388;8.116;2023-11-18T14:47:50;0.83;;;0.83;;
20241;SDS011;10279;46.388;8.116;2023-11-18T14:50:19;1.27;;;0.83;;
20241;SDS011;10279;46.388;8.116;2023-11-18T14:52:48;1.00;;;0.77;;
20241;SDS011;10279;46.388;8.116;2023-11-18T14:55:18;1.50;;;1.00;;
20241;SDS011;10279;46.388;8.116;2023-11-18T14:57:45;1.00;;;0.70;;
20241;SDS011;10279;46.388;8.116;2023-11-18T15:00:13;1.07;;;0.57;;
20241;SDS011;10279;46.388;8.116;2023-11-18T15:02:49;0.70;;;0.70;;
20241;SDS011;10279;46.388;8.116;2023-11-18T15:05:21;0.60;;;0.60;;
20241;SDS011;10279;46.388;8.116;2023-11-18T15:10:17;2.17;;;1.10;;
20241;SDS011;10279;46.388;8.116;2023-11-18T15:12:49;1.00;;;0.77;;
20241;SDS011;10279;46.388;8.116;2023-11-18T15:15:24;1.17;;;0.77;;
20241;SDS011;10279;46.388;8.116;2023-11-18T15:18:00;3.57;;;1.37;;
20241;SDS011;10279;46.388;8.116;2023-11-18T15:20:41;2.60;;;2.07;;
20241;SDS011;10279;46.388;8.116;2023-11-18T15:23:13;17.37;;;10.07;;
20241;SDS011;10279;46.388;8.116;2023-11-18T15:25:44;7.80;;;4.70;;
20241;SDS011;10279;46.388;8.116;2023-11-18T15:28:12;1.40;;;1.30;;
20241;SDS011;10279;46.388;8.116;2023-11-18T15:30:40;1.17;;;1.03;;
20241;SDS011;10279;46.388;8.116;2023-11-18T15:33:07;1.43;;;0.90;;
20241;SDS011;10279;46.388;8.116;2023-11-18T15:35:35;2.07;;;1.20;;
20241;SDS011;10279;46.388;8.116;2023-11-18T15:38:07;2.43;;;1.73;;
20241;SDS011;10279;46.388;8.116;2023-11-18T15:40:36;8.70;;;4.40;;
20241;SDS011;10279;46.388;8.116;2023-11-18T15:43:03;36.63;;;18.43;;